createdAt,value
2018-09-26T00:02:20.040Z,6.01
2018-09-26T00:04:51.963Z,5.99
2018-09-26T00:07:21.054Z,6.00
2018-09-26T00:09:50.216Z,5.85
2018-09-26T00:12:19.296Z,5.90
2018-09-26T00:14:48.389Z,5.80
2018-09-26T00:17:17.668Z,5.68
2018-09-26T00:19:46.826Z,5.79
2018-09-26T00:22:15.893Z,5.86
2018-09-26T00:24:44.942Z,5.88
2018-09-26T00:27:13.999Z,5.83
2018-09-26T00:29:43.135Z,5.76
2018-09-26T00:32:12.233Z,5.79
2018-09-26T00:34:41.383Z,5.73
2018-09-26T00:37:10.537Z,5.68
2018-09-26T00:39:39.771Z,5.62
2018-09-26T00:42:08.943Z,5.72
2018-09-26T00:44:38.060Z,5.67
2018-09-26T00:47:07.187Z,5.52
2018-09-26T00:49:36.359Z,5.65
2018-09-26T00:52:05.437Z,5.43
2018-09-26T00:54:34.515Z,5.57
2018-09-26T00:57:03.585Z,5.46
2018-09-26T00:59:32.649Z,5.48
2018-09-26T01:02:01.749Z,5.42
2018-09-26T01:04:30.822Z,5.45
2018-09-26T01:06:59.864Z,5.47
2018-09-26T01:09:29.153Z,5.35
2018-09-26T01:11:58.205Z,5.43
2018-09-26T01:14:27.360Z,5.66
2018-09-26T01:16:56.412Z,5.41
2018-09-26T01:19:25.500Z,5.52
2018-09-26T01:21:54.677Z,5.33
2018-09-26T01:24:23.754Z,5.25
2018-09-26T01:26:52.912Z,5.17
2018-09-26T01:29:22.076Z,5.19
2018-09-26T01:31:51.128Z,5.26
2018-09-26T01:34:20.312Z,5.25
2018-09-26T01:36:49.383Z,5.24
2018-09-26T01:39:18.516Z,5.33
2018-09-26T01:41:48.580Z,5.15
2018-09-26T01:44:17.776Z,5.07
2018-09-26T01:46:46.861Z,5.11
2018-09-26T01:49:16.227Z,5.04
2018-09-26T01:51:45.356Z,5.09
2018-09-26T01:54:14.508Z,4.97
2018-09-26T01:56:43.652Z,4.98
2018-09-26T01:59:12.861Z,5.00
2018-09-26T02:01:41.924Z,4.97
2018-09-26T02:04:11.099Z,5.06
2018-09-26T02:06:40.178Z,5.18
2018-09-26T02:09:11.020Z,5.10
2018-09-26T02:11:40.256Z,5.13
2018-09-26T02:14:09.418Z,5.03
2018-09-26T02:16:38.627Z,5.00
2018-09-26T02:19:07.765Z,4.94
2018-09-26T02:21:36.851Z,5.03
2018-09-26T02:24:05.991Z,4.82
2018-09-26T02:26:35.118Z,4.61
2018-09-26T02:29:04.249Z,4.63
2018-09-26T02:31:33.326Z,4.82
2018-09-26T02:34:02.477Z,4.69
2018-09-26T02:36:31.648Z,4.66
2018-09-26T02:39:00.778Z,4.56
2018-09-26T02:41:29.872Z,4.65
2018-09-26T02:43:59.013Z,4.65
2018-09-26T02:46:28.077Z,4.45
2018-09-26T02:49:02.541Z,4.54
2018-09-26T02:51:31.916Z,4.41
2018-09-26T02:54:00.981Z,4.43
2018-09-26T02:56:30.147Z,4.36
2018-09-26T02:58:59.229Z,4.51
2018-09-26T03:01:28.339Z,4.47
2018-09-26T03:03:57.505Z,4.50
2018-09-26T03:06:26.657Z,4.50
2018-09-26T03:08:55.842Z,4.49
2018-09-26T03:11:24.893Z,4.69
2018-09-26T03:13:54.101Z,4.59
2018-09-26T03:16:23.196Z,4.60
2018-09-26T03:18:52.292Z,4.45
2018-09-26T03:21:21.944Z,4.41
2018-09-26T03:23:51.053Z,4.48
2018-09-26T03:26:20.203Z,4.56
2018-09-26T03:28:49.285Z,4.44
2018-09-26T03:31:18.452Z,4.35
2018-09-26T03:33:47.695Z,4.38
2018-09-26T03:36:16.660Z,4.31
2018-09-26T03:38:45.780Z,4.33
2018-09-26T03:41:14.914Z,4.18
2018-09-26T03:43:43.985Z,4.39
2018-09-26T03:46:13.046Z,4.34
2018-09-26T03:48:42.265Z,4.34
2018-09-26T03:51:11.344Z,4.32
2018-09-26T03:53:40.488Z,4.27
2018-09-26T03:56:09.657Z,4.25
2018-09-26T03:58:38.779Z,4.36
2018-09-26T04:01:07.953Z,4.18
2018-09-26T04:03:37.017Z,4.27
2018-09-26T04:06:06.285Z,4.48
2018-09-26T04:08:35.377Z,4.19
2018-09-26T04:11:04.453Z,4.14
2018-09-26T04:13:33.505Z,4.10
2018-09-26T04:16:02.584Z,4.19
2018-09-26T04:18:32.321Z,4.21
2018-09-26T04:21:01.413Z,4.10
2018-09-26T04:23:30.533Z,4.08
2018-09-26T04:25:59.625Z,4.13
2018-09-26T04:28:28.745Z,4.03
2018-09-26T04:30:57.925Z,4.01
2018-09-26T04:33:26.993Z,4.10
2018-09-26T04:35:56.102Z,4.12
2018-09-26T04:38:25.273Z,4.10
2018-09-26T04:40:54.316Z,4.14
2018-09-26T04:43:23.493Z,4.28
2018-09-26T04:45:52.532Z,4.15
2018-09-26T04:48:21.739Z,4.13
2018-09-26T04:50:50.914Z,4.22
2018-09-26T04:53:20.016Z,4.19
2018-09-26T04:55:49.147Z,4.38
2018-09-26T04:58:18.291Z,4.31
2018-09-26T05:00:47.380Z,4.26
2018-09-26T05:03:16.468Z,4.21
2018-09-26T05:05:45.582Z,4.28
2018-09-26T05:08:14.722Z,4.26
2018-09-26T05:10:43.799Z,4.30
2018-09-26T05:13:12.954Z,4.49
2018-09-26T05:15:42.020Z,4.48
2018-09-26T05:18:11.099Z,4.36
2018-09-26T05:20:40.207Z,4.30
2018-09-26T05:23:09.413Z,4.33
2018-09-26T05:25:38.609Z,4.42
2018-09-26T05:28:07.719Z,4.42
2018-09-26T05:30:36.864Z,4.38
2018-09-26T05:33:06.297Z,4.39
2018-09-26T05:35:35.435Z,4.31
2018-09-26T05:38:04.689Z,4.25
2018-09-26T05:40:33.889Z,4.29
2018-09-26T05:43:03.093Z,4.24
2018-09-26T05:45:32.283Z,4.19
2018-09-26T05:48:01.482Z,4.35
2018-09-26T05:50:30.709Z,4.29
2018-09-26T05:52:59.757Z,4.43
2018-09-26T05:55:28.888Z,4.55
2018-09-26T05:57:57.976Z,4.52
2018-09-26T06:00:27.096Z,4.54
2018-09-26T06:02:56.273Z,4.68
2018-09-26T06:05:25.447Z,4.80
2018-09-26T06:07:54.700Z,4.58
2018-09-26T06:10:23.884Z,4.68
2018-09-26T06:12:52.959Z,4.80
2018-09-26T06:15:22.084Z,4.84
2018-09-26T06:17:51.248Z,4.88
2018-09-26T06:20:20.463Z,4.91
2018-09-26T06:22:49.528Z,4.96
2018-09-26T06:25:18.697Z,5.08
2018-09-26T06:27:47.756Z,5.05
2018-09-26T06:30:17.018Z,5.16
2018-09-26T06:32:46.124Z,5.25
2018-09-26T06:35:15.207Z,5.39
2018-09-26T06:37:44.319Z,5.46
2018-09-26T06:40:13.535Z,5.32
2018-09-26T06:42:42.617Z,5.37
2018-09-26T06:45:11.713Z,5.50
2018-09-26T06:47:40.859Z,5.54
2018-09-26T06:50:09.960Z,5.56
2018-09-26T06:52:39.035Z,5.63
2018-09-26T06:55:08.097Z,5.61
2018-09-26T06:57:37.326Z,5.83
2018-09-26T07:00:07.028Z,5.97
2018-09-26T07:02:36.068Z,5.98
2018-09-26T07:05:05.161Z,6.06
2018-09-26T07:07:34.301Z,6.20
2018-09-26T07:10:03.369Z,6.24
2018-09-26T07:12:32.492Z,6.36
2018-09-26T07:15:01.557Z,6.30
2018-09-26T07:17:30.675Z,6.36
2018-09-26T07:19:59.742Z,6.53
2018-09-26T07:22:28.824Z,6.65
2018-09-26T07:24:57.928Z,6.83
2018-09-26T07:27:27.046Z,6.95
2018-09-26T07:29:56.136Z,7.00
2018-09-26T07:32:25.233Z,7.08
2018-09-26T07:34:54.360Z,7.09
2018-09-26T07:37:23.540Z,7.18
2018-09-26T07:39:52.719Z,7.34
2018-09-26T07:42:21.841Z,7.39
2018-09-26T07:44:51.004Z,7.56
2018-09-26T07:47:20.112Z,7.63
2018-09-26T07:49:49.207Z,7.70
2018-09-26T07:52:18.309Z,7.83
2018-09-26T07:54:47.388Z,7.90
2018-09-26T07:57:16.470Z,7.99
2018-09-26T07:59:45.652Z,7.97
2018-09-26T08:02:14.748Z,8.03
2018-09-26T08:04:43.976Z,8.13
2018-09-26T08:07:13.067Z,8.30
2018-09-26T08:09:42.179Z,8.41
2018-09-26T08:12:11.256Z,8.69
2018-09-26T08:14:40.349Z,8.81
2018-09-26T08:17:09.551Z,8.78
2018-09-26T08:19:38.657Z,8.95
2018-09-26T08:22:07.717Z,9.05
2018-09-26T08:24:36.949Z,9.23
2018-09-26T08:27:06.162Z,9.38
2018-09-26T08:29:35.265Z,9.61
2018-09-26T08:32:04.341Z,9.68
2018-09-26T08:34:33.444Z,9.77
2018-09-26T08:37:02.519Z,10.24
2018-09-26T08:39:31.632Z,10.31
2018-09-26T08:42:00.814Z,10.20
2018-09-26T08:44:30.090Z,10.04
2018-09-26T08:46:59.220Z,10.01
2018-09-26T08:49:28.344Z,10.05
2018-09-26T08:51:57.459Z,10.04
2018-09-26T08:54:26.628Z,10.08
2018-09-26T08:56:56.027Z,10.31
2018-09-26T08:59:25.195Z,10.20
2018-09-26T09:01:54.316Z,10.16
2018-09-26T09:04:23.495Z,10.23
2018-09-26T09:06:52.602Z,10.26
2018-09-26T09:09:21.677Z,10.45
2018-09-26T09:11:50.793Z,10.60
2018-09-26T09:14:19.916Z,10.54
2018-09-26T09:16:49.287Z,10.56
2018-09-26T09:19:18.371Z,10.82
2018-09-26T09:21:47.485Z,10.76
2018-09-26T09:24:16.555Z,11.05
2018-09-26T09:26:45.681Z,11.19
2018-09-26T09:29:14.775Z,11.28
2018-09-26T09:31:43.881Z,11.36
2018-09-26T09:34:12.955Z,11.48
2018-09-26T09:36:42.134Z,11.38
2018-09-26T09:39:11.287Z,11.55
2018-09-26T09:41:40.455Z,11.39
2018-09-26T09:44:09.576Z,11.44
2018-09-26T09:46:38.772Z,11.76
2018-09-26T09:49:07.925Z,11.97
2018-09-26T09:51:37.068Z,12.17
2018-09-26T09:54:06.303Z,12.12
2018-09-26T09:56:35.401Z,12.13
2018-09-26T09:59:04.503Z,12.16
2018-09-26T10:01:33.693Z,12.23
2018-09-26T10:04:02.804Z,12.25
2018-09-26T10:06:31.908Z,12.28
2018-09-26T10:09:01.018Z,12.37
2018-09-26T10:11:30.112Z,12.88
2018-09-26T10:13:59.208Z,13.00
2018-09-26T10:16:28.289Z,13.03
2018-09-26T10:18:57.496Z,13.16
2018-09-26T10:21:26.596Z,13.41
2018-09-26T10:23:55.716Z,13.15
2018-09-26T10:26:24.857Z,13.31
2018-09-26T10:28:53.916Z,13.47
2018-09-26T10:31:23.003Z,13.82
2018-09-26T10:33:52.166Z,14.23
2018-09-26T10:36:21.343Z,14.02
2018-09-26T10:38:50.675Z,13.93
2018-09-26T10:41:19.848Z,13.84
2018-09-26T10:43:48.951Z,13.87
2018-09-26T10:46:18.045Z,14.05
2018-09-26T10:48:47.207Z,14.19
2018-09-26T10:51:16.340Z,14.85
2018-09-26T10:53:45.450Z,14.85
2018-09-26T10:56:14.664Z,14.86
2018-09-26T10:58:43.811Z,14.91
2018-09-26T11:01:13.007Z,14.87
2018-09-26T11:03:42.107Z,15.24
2018-09-26T11:06:11.235Z,15.29
2018-09-26T11:08:40.394Z,15.76
2018-09-26T11:11:09.521Z,15.91
2018-09-26T11:13:38.693Z,16.28
2018-09-26T11:16:08.025Z,16.17
2018-09-26T11:18:37.052Z,16.33
2018-09-26T11:21:06.876Z,16.09
2018-09-26T11:23:35.905Z,16.39
2018-09-26T11:26:05.051Z,16.59
2018-09-26T11:28:34.100Z,17.14
2018-09-26T11:31:03.305Z,17.44
2018-09-26T11:33:32.560Z,17.68
2018-09-26T11:36:01.901Z,17.95
2018-09-26T11:38:30.984Z,17.82
2018-09-26T11:41:00.150Z,20.36
2018-09-26T11:43:29.464Z,20.65
2018-09-26T11:45:58.629Z,21.29
2018-09-26T11:48:27.768Z,21.39
2018-09-26T11:50:56.893Z,21.83
2018-09-26T11:53:26.068Z,22.65
2018-09-26T11:55:55.303Z,22.92
2018-09-26T11:58:24.394Z,23.94
2018-09-26T12:00:53.599Z,22.72
2018-09-26T12:03:22.667Z,24.57
2018-09-26T12:05:51.748Z,24.05
2018-09-26T12:08:20.951Z,23.70
2018-09-26T12:10:49.976Z,24.81
2018-09-26T12:13:19.087Z,21.42
2018-09-26T12:15:48.235Z,24.85
2018-09-26T12:18:17.335Z,25.02
2018-09-26T12:20:46.389Z,23.75
2018-09-26T12:23:15.641Z,25.10
2018-09-26T12:25:44.733Z,21.92
2018-09-26T12:28:13.943Z,25.77
2018-09-26T12:30:43.023Z,24.96
2018-09-26T12:33:12.717Z,26.12
2018-09-26T12:35:41.786Z,25.48
2018-09-26T12:38:10.926Z,25.50
2018-09-26T12:40:40.029Z,24.25
2018-09-26T12:43:09.153Z,26.62
2018-09-26T12:45:38.293Z,26.91
2018-09-26T12:48:07.788Z,27.18
2018-09-26T12:50:36.887Z,28.63
2018-09-26T12:53:06.313Z,28.63
2018-09-26T12:55:35.757Z,27.89
2018-09-26T12:58:05.095Z,27.68
2018-09-26T13:00:34.299Z,26.85
2018-09-26T13:03:03.377Z,28.20
2018-09-26T13:05:32.528Z,27.90
2018-09-26T13:08:01.694Z,27.30
2018-09-26T13:10:30.781Z,26.17
2018-09-26T13:12:59.924Z,26.37
2018-09-26T13:15:29.268Z,26.82
2018-09-26T13:17:58.328Z,27.57
2018-09-26T13:20:27.460Z,27.00
2018-09-26T13:22:56.490Z,27.58
2018-09-26T13:25:25.610Z,26.66
2018-09-26T13:27:54.656Z,28.93
2018-09-26T13:30:23.834Z,29.25
2018-09-26T13:32:52.828Z,29.68
2018-09-26T13:35:22.030Z,29.52
2018-09-26T13:37:51.166Z,28.99
2018-09-26T13:40:20.385Z,28.80
2018-09-26T13:42:49.524Z,29.07
2018-09-26T13:45:18.664Z,28.46
2018-09-26T13:47:47.731Z,27.97
2018-09-26T13:50:17.075Z,28.88
2018-09-26T13:52:46.081Z,29.94
2018-09-26T13:55:15.437Z,29.96
2018-09-26T13:57:44.502Z,30.65
2018-09-26T14:00:16.569Z,30.37
2018-09-26T14:02:46.500Z,29.51
2018-09-26T14:05:15.603Z,27.68
2018-09-26T14:07:44.674Z,27.96
2018-09-26T14:10:13.765Z,29.17
2018-09-26T14:12:49.722Z,28.92
2018-09-26T14:15:18.865Z,28.18
2018-09-26T14:17:47.920Z,27.90
2018-09-26T14:20:17.141Z,27.76
2018-09-26T14:22:46.314Z,28.36
2018-09-26T14:25:15.299Z,28.89
2018-09-26T14:27:44.498Z,28.37
2018-09-26T14:30:13.594Z,28.70
2018-09-26T14:32:42.639Z,28.33
2018-09-26T14:35:11.778Z,28.92
2018-09-26T14:37:40.815Z,28.57
2018-09-26T14:40:10.337Z,28.71
2018-09-26T14:42:39.831Z,28.08
2018-09-26T14:45:09.124Z,28.83
2018-09-26T14:47:38.113Z,28.90
2018-09-26T14:50:07.877Z,29.05
2018-09-26T14:52:37.035Z,27.62
2018-09-26T14:55:06.192Z,27.17
2018-09-26T14:57:35.285Z,28.50
2018-09-26T15:00:04.614Z,26.99
2018-09-26T15:02:33.800Z,26.96
2018-09-26T15:05:02.880Z,27.05
2018-09-26T15:07:31.984Z,27.86
2018-09-26T15:10:01.076Z,27.06
2018-09-26T15:12:30.263Z,27.03
2018-09-26T15:14:59.354Z,26.67
2018-09-26T15:17:28.540Z,26.71
2018-09-26T15:19:57.659Z,26.46
2018-09-26T15:22:26.847Z,25.12
2018-09-26T15:24:56.001Z,24.53
2018-09-26T15:27:25.177Z,23.89
2018-09-26T15:29:54.265Z,23.19
2018-09-26T15:32:23.601Z,22.63
2018-09-26T15:34:52.642Z,24.17
2018-09-26T15:37:21.721Z,24.74
2018-09-26T15:39:50.957Z,23.92
2018-09-26T15:42:20.110Z,24.51
2018-09-26T15:44:49.123Z,24.55
2018-09-26T15:47:18.204Z,24.48
2018-09-26T15:49:47.336Z,23.38
2018-09-26T15:52:16.420Z,22.15
2018-09-26T15:54:45.561Z,21.66
2018-09-26T15:57:14.700Z,21.15
2018-09-26T15:59:43.840Z,20.78
2018-09-26T16:02:13.028Z,20.89
2018-09-26T16:04:42.067Z,21.30
2018-09-26T16:07:11.155Z,21.12
2018-09-26T16:09:40.371Z,20.69
2018-09-26T16:12:09.528Z,20.39
2018-09-26T16:14:38.597Z,19.76
2018-09-26T16:17:07.689Z,19.49
2018-09-26T16:19:36.990Z,19.29
2018-09-26T16:22:06.101Z,19.08
2018-09-26T16:24:35.296Z,18.72
2018-09-26T16:27:04.380Z,18.59
2018-09-26T16:29:33.460Z,18.47
2018-09-26T16:32:02.704Z,18.02
2018-09-26T16:34:31.832Z,18.04
2018-09-26T16:37:00.964Z,17.67
2018-09-26T16:39:30.188Z,17.60
2018-09-26T16:41:59.266Z,17.50
2018-09-26T16:44:28.448Z,17.25
2018-09-26T16:46:57.589Z,17.25
2018-09-26T16:49:26.674Z,17.10
2018-09-26T16:51:55.841Z,16.82
2018-09-26T16:54:25.048Z,16.42
2018-09-26T16:56:54.204Z,16.45
2018-09-26T16:59:23.313Z,16.13
2018-09-26T17:01:52.445Z,16.22
2018-09-26T17:04:21.596Z,16.04
2018-09-26T17:06:50.645Z,15.77
2018-09-26T17:09:19.709Z,15.71
2018-09-26T17:11:48.800Z,15.67
2018-09-26T17:14:18.006Z,15.63
2018-09-26T17:16:47.100Z,15.56
2018-09-26T17:19:16.349Z,15.34
2018-09-26T17:21:45.392Z,15.38
2018-09-26T17:24:14.609Z,15.20
2018-09-26T17:26:43.789Z,14.97
2018-09-26T17:29:12.953Z,15.05
2018-09-26T17:31:42.069Z,14.88
2018-09-26T17:34:11.491Z,14.62
2018-09-26T17:36:40.565Z,14.55
2018-09-26T17:39:10.085Z,14.67
2018-09-26T17:41:39.784Z,14.60
2018-09-26T17:44:09.455Z,14.51
2018-09-26T17:46:38.642Z,14.16
2018-09-26T17:49:07.747Z,14.40
2018-09-26T17:51:36.833Z,14.12
2018-09-26T17:54:05.969Z,14.07
2018-09-26T17:56:35.045Z,13.81
2018-09-26T17:59:04.173Z,13.98
2018-09-26T18:01:33.290Z,13.81
2018-09-26T18:04:02.471Z,13.58
2018-09-26T18:06:31.576Z,13.53
2018-09-26T18:09:00.784Z,13.56
2018-09-26T18:11:29.856Z,13.56
2018-09-26T18:13:58.972Z,13.36
2018-09-26T18:16:28.068Z,13.38
2018-09-26T18:18:57.214Z,13.47
2018-09-26T18:21:26.316Z,13.38
2018-09-26T18:23:55.692Z,13.21
2018-09-26T18:26:24.767Z,13.26
2018-09-26T18:28:53.868Z,13.15
2018-09-26T18:31:22.997Z,13.23
2018-09-26T18:33:52.142Z,12.97
2018-09-26T18:36:21.301Z,12.99
2018-09-26T18:38:50.667Z,13.12
2018-09-26T18:41:19.660Z,12.98
2018-09-26T18:43:48.845Z,12.99
2018-09-26T18:46:17.926Z,12.87
2018-09-26T18:48:47.004Z,12.76
2018-09-26T18:51:16.168Z,12.84
2018-09-26T18:53:45.280Z,12.80
2018-09-26T18:56:14.480Z,12.87
2018-09-26T18:58:43.826Z,12.62
2018-09-26T19:01:12.957Z,12.62
2018-09-26T19:03:42.073Z,12.53
2018-09-26T19:06:11.245Z,12.46
2018-09-26T19:08:41.273Z,12.33
2018-09-26T19:11:10.387Z,12.31
2018-09-26T19:13:39.517Z,12.39
2018-09-26T19:16:08.788Z,12.34
2018-09-26T19:18:37.864Z,12.28
2018-09-26T19:21:07.059Z,12.16
2018-09-26T19:23:36.744Z,12.12
2018-09-26T19:26:05.949Z,12.24
2018-09-26T19:28:35.061Z,12.34
2018-09-26T19:31:04.193Z,12.28
2018-09-26T19:33:33.385Z,12.35
2018-09-26T19:36:02.517Z,12.43
2018-09-26T19:38:31.665Z,12.33
2018-09-26T19:41:00.761Z,12.23
2018-09-26T19:43:29.921Z,12.04
2018-09-26T19:45:59.005Z,11.89
2018-09-26T19:48:28.176Z,12.07
2018-09-26T19:50:57.363Z,11.74
2018-09-26T19:53:26.553Z,11.81
2018-09-26T19:55:55.788Z,11.90
2018-09-26T19:58:24.909Z,11.88
2018-09-26T20:00:54.076Z,11.88
2018-09-26T20:03:23.232Z,11.94
2018-09-26T20:05:52.420Z,11.78
2018-09-26T20:08:21.524Z,11.88
2018-09-26T20:10:50.721Z,11.80
2018-09-26T20:13:19.852Z,11.66
2018-09-26T20:15:48.944Z,11.65
2018-09-26T20:18:18.084Z,11.63
2018-09-26T20:20:47.296Z,11.68
2018-09-26T20:23:16.522Z,11.71
2018-09-26T20:25:45.744Z,11.68
2018-09-26T20:28:14.981Z,11.65
2018-09-26T20:30:44.104Z,11.64
2018-09-26T20:33:13.325Z,11.63
2018-09-26T20:35:42.397Z,11.59
2018-09-26T20:38:11.539Z,11.56
2018-09-26T20:40:40.663Z,11.58
2018-09-26T20:43:09.903Z,11.51
2018-09-26T20:45:38.987Z,11.45
2018-09-26T20:48:08.157Z,11.44
2018-09-26T20:50:37.253Z,11.54
2018-09-26T20:53:06.717Z,11.47
2018-09-26T20:55:36.025Z,11.35
2018-09-26T20:58:05.377Z,11.45
2018-09-26T21:00:34.531Z,11.40
2018-09-26T21:03:03.804Z,11.40
2018-09-26T21:05:32.960Z,11.26
2018-09-26T21:08:02.053Z,11.06
2018-09-26T21:10:31.173Z,11.13
2018-09-26T21:13:00.262Z,10.99
2018-09-26T21:15:29.473Z,10.95
2018-09-26T21:17:58.730Z,10.98
2018-09-26T21:20:27.747Z,10.97
2018-09-26T21:22:56.846Z,10.91
2018-09-26T21:25:26.033Z,10.87
2018-09-26T21:27:55.101Z,10.90
2018-09-26T21:30:24.248Z,10.89
2018-09-26T21:32:53.339Z,11.04
2018-09-26T21:35:22.565Z,11.12
2018-09-26T21:37:51.833Z,11.03
2018-09-26T21:40:21.001Z,10.94
2018-09-26T21:42:50.116Z,10.89
2018-09-26T21:45:19.196Z,10.84
2018-09-26T21:47:48.288Z,10.84
2018-09-26T21:50:17.387Z,10.88
2018-09-26T21:52:46.473Z,10.79
2018-09-26T21:55:15.615Z,10.73
2018-09-26T21:57:44.795Z,10.77
2018-09-26T22:00:14.036Z,10.92
2018-09-26T22:02:43.158Z,10.87
2018-09-26T22:05:12.270Z,10.93
2018-09-26T22:07:41.368Z,10.90
2018-09-26T22:10:10.796Z,10.92
2018-09-26T22:12:39.947Z,10.81
2018-09-26T22:15:25.573Z,10.77
2018-09-26T22:17:55.109Z,10.76
2018-09-26T22:20:24.184Z,10.72
2018-09-26T22:22:53.343Z,10.89
2018-09-26T22:25:22.519Z,10.92
2018-09-26T22:27:51.655Z,11.04
2018-09-26T22:30:20.731Z,11.01
2018-09-26T22:32:49.827Z,11.01
2018-09-26T22:35:19.004Z,10.88
2018-09-26T22:37:48.168Z,10.80
2018-09-26T22:40:17.235Z,10.76
2018-09-26T22:42:46.328Z,10.76
2018-09-26T22:45:15.488Z,10.81
2018-09-26T22:47:44.617Z,10.75
2018-09-26T22:50:13.804Z,10.77
2018-09-26T22:52:42.876Z,10.78
2018-09-26T22:55:12.017Z,10.75
2018-09-26T22:57:41.196Z,10.68
2018-09-26T23:00:10.327Z,10.63
2018-09-26T23:02:39.415Z,10.46
2018-09-26T23:05:08.631Z,10.40
2018-09-26T23:07:37.711Z,10.40
2018-09-26T23:10:06.899Z,10.30
2018-09-26T23:12:36.048Z,10.28
2018-09-26T23:15:05.173Z,10.25
2018-09-26T23:17:34.390Z,10.18
2018-09-26T23:20:03.539Z,10.17
2018-09-26T23:22:32.711Z,10.14
2018-09-26T23:25:01.867Z,10.03
2018-09-26T23:27:30.983Z,10.03
2018-09-26T23:30:00.231Z,9.87
2018-09-26T23:32:29.293Z,9.89
2018-09-26T23:34:58.397Z,9.83
2018-09-26T23:37:27.513Z,9.83
2018-09-26T23:39:56.623Z,9.87
2018-09-26T23:42:25.710Z,9.80
2018-09-26T23:44:54.824Z,9.76
2018-09-26T23:47:23.901Z,9.76
2018-09-26T23:49:53.021Z,9.67
2018-09-26T23:52:22.198Z,9.62
2018-09-26T23:54:51.287Z,9.71
2018-09-26T23:57:20.400Z,9.57
2018-09-26T23:59:49.481Z,9.54
